sensor_id;sensor_type;location;lat;lon;timestamp;P1;durP1;ratioP1;P2;durP2;ratioP2
32427;SDS011;18882;50.952;4.366;2024-01-11T02:00:10;44.92;;;15.35;;
32427;SDS011;18882;50.952;4.366;2024-01-11T02:02:39;46.03;;;14.00;;
32427;SDS011;18882;50.952;4.366;2024-01-11T02:05:17;46.75;;;14.75;;
32427;SDS011;18882;50.952;4.366;2024-01-11T07:04:00;45.78;;;14.13;;
32427;SDS011;18882;50.952;4.366;2024-01-11T07:09:49;41.50;;;12.00;;
32427;SDS011;18882;50.952;4.366;2024-01-11T07:12:21;34.78;;;12.88;;
32427;SDS011;18882;50.952;4.366;2024-01-11T07:14:48;44.88;;;13.93;;
32427;SDS011;18882;50.952;4.366;2024-01-11T07:17:18;40.03;;;13.60;;
32427;SDS011;18882;50.952;4.366;2024-01-11T07:19:49;42.95;;;13.88;;
32427;SDS011;18882;50.952;4.366;2024-01-11T07:22:16;39.05;;;13.32;;
32427;SDS011;18882;50.952;4.366;2024-01-11T07:24:42;46.88;;;14.98;;
32427;SDS011;18882;50.952;4.366;2024-01-11T07:30:31;39.17;;;12.88;;
32427;SDS011;18882;50.952;4.366;2024-01-11T07:33:01;53.25;;;15.48;;
32427;SDS011;18882;50.952;4.366;2024-01-11T07:35:32;39.92;;;13.35;;
32427;SDS011;18882;50.952;4.366;2024-01-11T07:38:00;45.75;;;14.68;;
32427;SDS011;18882;50.952;4.366;2024-01-11T07:40:52;50.92;;;13.60;;
32427;SDS011;18882;50.952;4.366;2024-01-11T07:44:07;43.90;;;14.90;;
32427;SDS011;18882;50.952;4.366;2024-01-11T07:46:45;45.28;;;13.77;;
32427;SDS011;18882;50.952;4.366;2024-01-11T07:49:53;47.15;;;14.32;;
32427;SDS011;18882;50.952;4.366;2024-01-11T07:52:39;46.80;;;14.38;;
32427;SDS011;18882;50.952;4.366;2024-01-11T07:55:37;48.65;;;15.35;;
32427;SDS011;18882;50.952;4.366;2024-01-11T07:58:40;40.83;;;13.88;;
32427;SDS011;18882;50.952;4.366;2024-01-11T08:02:23;50.33;;;16.27;;
32427;SDS011;18882;50.952;4.366;2024-01-11T08:09:10;41.67;;;15.25;;
32427;SDS011;18882;50.952;4.366;2024-01-11T08:12:00;48.90;;;16.63;;
32427;SDS011;18882;50.952;4.366;2024-01-11T08:14:48;44.33;;;13.82;;
32427;SDS011;18882;50.952;4.366;2024-01-11T08:18:12;44.25;;;14.05;;
32427;SDS011;18882;50.952;4.366;2024-01-11T08:24:18;43.60;;;14.82;;
32427;SDS011;18882;50.952;4.366;2024-01-11T08:27:04;44.22;;;14.85;;
32427;SDS011;18882;50.952;4.366;2024-01-11T08:32:50;40.60;;;13.30;;
32427;SDS011;18882;50.952;4.366;2024-01-11T08:36:06;40.38;;;13.32;;
32427;SDS011;18882;50.952;4.366;2024-01-11T08:42:14;53.55;;;15.82;;
32427;SDS011;18882;50.952;4.366;2024-01-11T08:44:45;59.60;;;17.77;;
32427;SDS011;18882;50.952;4.366;2024-01-11T08:47:13;79.22;;;18.02;;
32427;SDS011;18882;50.952;4.366;2024-01-11T08:49:45;78.90;;;18.98;;
32427;SDS011;18882;50.952;4.366;2024-01-11T08:52:13;64.80;;;18.20;;
32427;SDS011;18882;50.952;4.366;2024-01-11T08:54:42;49.35;;;15.93;;
32427;SDS011;18882;50.952;4.366;2024-01-11T08:57:10;56.92;;;16.25;;
32427;SDS011;18882;50.952;4.366;2024-01-11T08:59:38;42.28;;;13.93;;
32427;SDS011;18882;50.952;4.366;2024-01-11T09:02:07;45.20;;;14.52;;
32427;SDS011;18882;50.952;4.366;2024-01-11T09:04:34;40.80;;;14.65;;
32427;SDS011;18882;50.952;4.366;2024-01-11T09:07:01;44.05;;;12.82;;
32427;SDS011;18882;50.952;4.366;2024-01-11T09:09:29;47.80;;;15.48;;
32427;SDS011;18882;50.952;4.366;2024-01-11T09:12:01;40.72;;;13.07;;
32427;SDS011;18882;50.952;4.366;2024-01-11T09:14:28;39.58;;;14.60;;
32427;SDS011;18882;50.952;4.366;2024-01-11T09:16:59;44.83;;;15.30;;
32427;SDS011;18882;50.952;4.366;2024-01-11T09:19:25;60.10;;;15.77;;
32427;SDS011;18882;50.952;4.366;2024-01-11T09:21:54;40.85;;;14.48;;
32427;SDS011;18882;50.952;4.366;2024-01-11T09:25:07;46.05;;;15.60;;
32427;SDS011;18882;50.952;4.366;2024-01-11T09:28:00;45.58;;;14.55;;
32427;SDS011;18882;50.952;4.366;2024-01-11T09:30:52;39.95;;;14.73;;
32427;SDS011;18882;50.952;4.366;2024-01-11T09:33:56;45.17;;;15.82;;
32427;SDS011;18882;50.952;4.366;2024-01-11T09:36:59;47.72;;;15.55;;
32427;SDS011;18882;50.952;4.366;2024-01-11T09:40:11;45.33;;;16.55;;
32427;SDS011;18882;50.952;4.366;2024-01-11T09:42:53;49.13;;;15.07;;
32427;SDS011;18882;50.952;4.366;2024-01-11T09:45:46;53.53;;;16.13;;
32427;SDS011;18882;50.952;4.366;2024-01-11T09:48:38;45.42;;;16.33;;
32427;SDS011;18882;50.952;4.366;2024-01-11T09:51:10;44.42;;;16.05;;
32427;SDS011;18882;50.952;4.366;2024-01-11T09:53:58;47.55;;;15.85;;
32427;SDS011;18882;50.952;4.366;2024-01-11T09:57:09;46.90;;;15.03;;
32427;SDS011;18882;50.952;4.366;2024-01-11T10:00:22;51.85;;;17.40;;
32427;SDS011;18882;50.952;4.366;2024-01-11T10:03:51;46.42;;;15.10;;
32427;SDS011;18882;50.952;4.366;2024-01-11T10:06:40;58.03;;;17.33;;
32427;SDS011;18882;50.952;4.366;2024-01-11T10:09:30;39.28;;;12.93;;
32427;SDS011;18882;50.952;4.366;2024-01-11T10:12:38;41.33;;;13.95;;
32427;SDS011;18882;50.952;4.366;2024-01-11T10:19:05;44.55;;;15.30;;
32427;SDS011;18882;50.952;4.366;2024-01-11T10:24:44;35.92;;;14.07;;
32427;SDS011;18882;50.952;4.366;2024-01-11T10:27:52;46.90;;;14.55;;
32427;SDS011;18882;50.952;4.366;2024-01-11T10:31:05;45.22;;;14.45;;
32427;SDS011;18882;50.952;4.366;2024-01-11T10:33:49;36.45;;;14.40;;
32427;SDS011;18882;50.952;4.366;2024-01-11T10:40:03;42.40;;;12.30;;
32427;SDS011;18882;50.952;4.366;2024-01-11T10:42:44;35.95;;;14.57;;
32427;SDS011;18882;50.952;4.366;2024-01-11T10:45:29;46.10;;;13.80;;
32427;SDS011;18882;50.952;4.366;2024-01-11T10:48:45;41.08;;;13.45;;
32427;SDS011;18882;50.952;4.366;2024-01-11T10:51:37;37.17;;;13.52;;
32427;SDS011;18882;50.952;4.366;2024-01-11T10:54:21;43.05;;;14.25;;
32427;SDS011;18882;50.952;4.366;2024-01-11T10:57:22;44.28;;;14.50;;
32427;SDS011;18882;50.952;4.366;2024-01-11T11:00:03;32.03;;;12.40;;
32427;SDS011;18882;50.952;4.366;2024-01-11T11:03:06;30.83;;;11.82;;
32427;SDS011;18882;50.952;4.366;2024-01-11T11:06:26;38.25;;;14.00;;
32427;SDS011;18882;50.952;4.366;2024-01-11T11:09:06;42.53;;;13.93;;
32427;SDS011;18882;50.952;4.366;2024-01-11T11:12:20;34.00;;;11.90;;
32427;SDS011;18882;50.952;4.366;2024-01-11T11:15:29;35.65;;;12.60;;
32427;SDS011;18882;50.952;4.366;2024-01-11T11:18:24;42.50;;;13.43;;
32427;SDS011;18882;50.952;4.366;2024-01-11T11:21:08;40.65;;;14.32;;
32427;SDS011;18882;50.952;4.366;2024-01-11T11:24:12;37.83;;;12.65;;
32427;SDS011;18882;50.952;4.366;2024-01-11T11:27:02;39.50;;;13.82;;
32427;SDS011;18882;50.952;4.366;2024-01-11T11:29:28;37.58;;;14.50;;
32427;SDS011;18882;50.952;4.366;2024-01-11T11:31:56;40.25;;;13.77;;
32427;SDS011;18882;50.952;4.366;2024-01-11T11:34:41;39.42;;;14.10;;
32427;SDS011;18882;50.952;4.366;2024-01-11T11:37:10;43.35;;;14.65;;
32427;SDS011;18882;50.952;4.366;2024-01-11T11:39:38;43.45;;;15.23;;
32427;SDS011;18882;50.952;4.366;2024-01-11T11:42:09;42.47;;;14.60;;
32427;SDS011;18882;50.952;4.366;2024-01-11T11:44:46;39.10;;;15.32;;
32427;SDS011;18882;50.952;4.366;2024-01-11T11:47:22;33.80;;;13.40;;
32427;SDS011;18882;50.952;4.366;2024-01-11T11:52:39;31.70;;;13.52;;
32427;SDS011;18882;50.952;4.366;2024-01-11T11:55:08;39.70;;;12.00;;
32427;SDS011;18882;50.952;4.366;2024-01-11T11:58:14;39.53;;;14.45;;
32427;SDS011;18882;50.952;4.366;2024-01-11T12:00:46;38.90;;;14.23;;
32427;SDS011;18882;50.952;4.366;2024-01-11T12:03:22;42.20;;;14.52;;
32427;SDS011;18882;50.952;4.366;2024-01-11T12:06:20;37.65;;;14.02;;
32427;SDS011;18882;50.952;4.366;2024-01-11T12:09:01;34.35;;;12.05;;
32427;SDS011;18882;50.952;4.366;2024-01-11T12:11:31;33.20;;;12.98;;
32427;SDS011;18882;50.952;4.366;2024-01-11T12:14:01;34.03;;;13.45;;
32427;SDS011;18882;50.952;4.366;2024-01-11T12:16:28;35.65;;;13.75;;
32427;SDS011;18882;50.952;4.366;2024-01-11T12:18:54;33.58;;;11.90;;
32427;SDS011;18882;50.952;4.366;2024-01-11T12:21:22;36.70;;;12.38;;
32427;SDS011;18882;50.952;4.366;2024-01-11T12:23:53;29.98;;;11.60;;
32427;SDS011;18882;50.952;4.366;2024-01-11T12:26:21;35.65;;;12.90;;
32427;SDS011;18882;50.952;4.366;2024-01-11T12:28:48;29.02;;;12.07;;
32427;SDS011;18882;50.952;4.366;2024-01-11T12:31:18;33.00;;;11.82;;
32427;SDS011;18882;50.952;4.366;2024-01-11T12:33:49;26.33;;;10.75;;
32427;SDS011;18882;50.952;4.366;2024-01-11T12:36:20;30.63;;;11.02;;
32427;SDS011;18882;50.952;4.366;2024-01-11T12:38:47;31.23;;;11.82;;
32427;SDS011;18882;50.952;4.366;2024-01-11T12:41:14;32.25;;;11.40;;
32427;SDS011;18882;50.952;4.366;2024-01-11T12:44:17;31.10;;;11.00;;
32427;SDS011;18882;50.952;4.366;2024-01-11T12:50:02;29.13;;;11.05;;
32427;SDS011;18882;50.952;4.366;2024-01-11T12:52:36;30.13;;;10.65;;
32427;SDS011;18882;50.952;4.366;2024-01-11T12:55:08;25.60;;;10.13;;
32427;SDS011;18882;50.952;4.366;2024-01-11T12:57:44;32.50;;;12.43;;
32427;SDS011;18882;50.952;4.366;2024-01-11T13:00:11;31.77;;;10.23;;
32427;SDS011;18882;50.952;4.366;2024-01-11T13:02:41;33.25;;;11.43;;
32427;SDS011;18882;50.952;4.366;2024-01-11T13:05:12;30.35;;;10.85;;
32427;SDS011;18882;50.952;4.366;2024-01-11T13:07:56;25.70;;;9.18;;
32427;SDS011;18882;50.952;4.366;2024-01-11T13:10:22;28.23;;;10.68;;
32427;SDS011;18882;50.952;4.366;2024-01-11T13:12:53;33.50;;;11.10;;
32427;SDS011;18882;50.952;4.366;2024-01-11T13:15:41;31.52;;;10.82;;
32427;SDS011;18882;50.952;4.366;2024-01-11T13:18:53;29.80;;;11.40;;
32427;SDS011;18882;50.952;4.366;2024-01-11T13:21:34;30.73;;;11.85;;
32427;SDS011;18882;50.952;4.366;2024-01-11T13:24:42;33.47;;;10.60;;
32427;SDS011;18882;50.952;4.366;2024-01-11T13:27:36;27.85;;;11.20;;
32427;SDS011;18882;50.952;4.366;2024-01-11T13:30:07;30.17;;;11.60;;
32427;SDS011;18882;50.952;4.366;2024-01-11T13:33:21;26.93;;;10.03;;
32427;SDS011;18882;50.952;4.366;2024-01-11T13:35:56;28.73;;;10.07;;
32427;SDS011;18882;50.952;4.366;2024-01-11T13:39:14;28.55;;;8.85;;
32427;SDS011;18882;50.952;4.366;2024-01-11T13:42:20;23.95;;;10.05;;
32427;SDS011;18882;50.952;4.366;2024-01-11T13:45:20;33.50;;;11.07;;
32427;SDS011;18882;50.952;4.366;2024-01-11T13:48:04;27.17;;;11.55;;
32427;SDS011;18882;50.952;4.366;2024-01-11T13:51:09;30.55;;;10.07;;
32427;SDS011;18882;50.952;4.366;2024-01-11T13:53:46;28.88;;;10.38;;
32427;SDS011;18882;50.952;4.366;2024-01-11T13:56:51;25.35;;;9.93;;
32427;SDS011;18882;50.952;4.366;2024-01-11T13:59:46;34.25;;;9.85;;
32427;SDS011;18882;50.952;4.366;2024-01-11T14:02:26;25.98;;;10.70;;
32427;SDS011;18882;50.952;4.366;2024-01-11T14:05:27;26.55;;;10.93;;
32427;SDS011;18882;50.952;4.366;2024-01-11T14:08:32;32.60;;;10.60;;
32427;SDS011;18882;50.952;4.366;2024-01-11T14:11:07;25.88;;;9.70;;
32427;SDS011;18882;50.952;4.366;2024-01-11T14:13:33;26.02;;;10.30;;
32427;SDS011;18882;50.952;4.366;2024-01-11T14:16:00;23.10;;;10.52;;
32427;SDS011;18882;50.952;4.366;2024-01-11T14:18:28;18.90;;;7.35;;
32427;SDS011;18882;50.952;4.366;2024-01-11T14:20:54;33.53;;;11.30;;
32427;SDS011;18882;50.952;4.366;2024-01-11T14:23:23;31.17;;;10.65;;
32427;SDS011;18882;50.952;4.366;2024-01-11T14:25:56;25.98;;;9.57;;
32427;SDS011;18882;50.952;4.366;2024-01-11T14:28:24;28.15;;;9.43;;
32427;SDS011;18882;50.952;4.366;2024-01-11T14:30:52;30.73;;;11.23;;
32427;SDS011;18882;50.952;4.366;2024-01-11T14:33:18;26.33;;;9.18;;
32427;SDS011;18882;50.952;4.366;2024-01-11T14:35:45;28.92;;;9.00;;
32427;SDS011;18882;50.952;4.366;2024-01-11T14:38:14;27.45;;;10.15;;
32427;SDS011;18882;50.952;4.366;2024-01-11T14:40:43;20.95;;;8.90;;
32427;SDS011;18882;50.952;4.366;2024-01-11T14:43:10;33.08;;;11.10;;
32427;SDS011;18882;50.952;4.366;2024-01-11T14:45:38;33.88;;;11.63;;
32427;SDS011;18882;50.952;4.366;2024-01-11T14:48:05;30.15;;;10.32;;
32427;SDS011;18882;50.952;4.366;2024-01-11T14:50:37;28.60;;;10.75;;
32427;SDS011;18882;50.952;4.366;2024-01-11T14:53:05;25.48;;;10.00;;
32427;SDS011;18882;50.952;4.366;2024-01-11T14:55:42;30.25;;;11.00;;
32427;SDS011;18882;50.952;4.366;2024-01-11T14:58:09;22.73;;;7.55;;
32427;SDS011;18882;50.952;4.366;2024-01-11T15:00:36;29.05;;;11.68;;
32427;SDS011;18882;50.952;4.366;2024-01-11T15:03:05;27.55;;;10.10;;
32427;SDS011;18882;50.952;4.366;2024-01-11T15:05:36;29.90;;;11.43;;
32427;SDS011;18882;50.952;4.366;2024-01-11T15:08:02;27.48;;;11.00;;
32427;SDS011;18882;50.952;4.366;2024-01-11T15:10:31;29.63;;;10.02;;
32427;SDS011;18882;50.952;4.366;2024-01-11T15:13:01;30.77;;;10.77;;
32427;SDS011;18882;50.952;4.366;2024-01-11T15:15:37;19.90;;;6.70;;
32427;SDS011;18882;50.952;4.366;2024-01-11T15:18:05;26.77;;;10.45;;
32427;SDS011;18882;50.952;4.366;2024-01-11T15:20:32;34.05;;;11.98;;
32427;SDS011;18882;50.952;4.366;2024-01-11T15:22:59;28.77;;;11.00;;
32427;SDS011;18882;50.952;4.366;2024-01-11T15:25:30;32.85;;;12.13;;
32427;SDS011;18882;50.952;4.366;2024-01-11T15:28:11;29.73;;;10.70;;
32427;SDS011;18882;50.952;4.366;2024-01-11T15:30:38;24.50;;;9.27;;
32427;SDS011;18882;50.952;4.366;2024-01-11T15:33:05;17.13;;;7.00;;
32427;SDS011;18882;50.952;4.366;2024-01-11T15:35:32;20.27;;;7.47;;
32427;SDS011;18882;50.952;4.366;2024-01-11T15:38:00;18.88;;;6.57;;
32427;SDS011;18882;50.952;4.366;2024-01-11T15:40:28;18.83;;;7.20;;
32427;SDS011;18882;50.952;4.366;2024-01-11T15:42:58;15.48;;;5.90;;
32427;SDS011;18882;50.952;4.366;2024-01-11T15:45:26;24.55;;;7.03;;
32427;SDS011;18882;50.952;4.366;2024-01-11T15:47:52;14.20;;;5.60;;
32427;SDS011;18882;50.952;4.366;2024-01-11T15:50:19;18.25;;;6.68;;
32427;SDS011;18882;50.952;4.366;2024-01-11T15:52:49;14.98;;;5.85;;
32427;SDS011;18882;50.952;4.366;2024-01-11T15:55:17;19.23;;;6.00;;
32427;SDS011;18882;50.952;4.366;2024-01-11T15:57:48;18.42;;;6.45;;
32427;SDS011;18882;50.952;4.366;2024-01-11T16:00:46;22.65;;;6.60;;
32427;SDS011;18882;50.952;4.366;2024-01-11T16:03:47;15.40;;;5.88;;
32427;SDS011;18882;50.952;4.366;2024-01-11T16:06:29;18.52;;;6.68;;
32427;SDS011;18882;50.952;4.366;2024-01-11T16:09:21;17.00;;;6.90;;
32427;SDS011;18882;50.952;4.366;2024-01-11T16:12:37;21.98;;;7.43;;
32427;SDS011;18882;50.952;4.366;2024-01-11T16:15:28;19.23;;;7.32;;
32427;SDS011;18882;50.952;4.366;2024-01-11T16:18:32;18.17;;;7.10;;
32427;SDS011;18882;50.952;4.366;2024-01-11T16:21:44;15.40;;;5.97;;
32427;SDS011;18882;50.952;4.366;2024-01-11T16:25:03;14.82;;;6.35;;
32427;SDS011;18882;50.952;4.366;2024-01-11T16:31:39;18.35;;;7.78;;
32427;SDS011;18882;50.952;4.366;2024-01-11T16:34:38;18.73;;;7.05;;
32427;SDS011;18882;50.952;4.366;2024-01-11T16:37:42;20.98;;;8.00;;
32427;SDS011;18882;50.952;4.366;2024-01-11T16:41:07;18.90;;;7.50;;
32427;SDS011;18882;50.952;4.366;2024-01-11T16:47:47;17.30;;;7.35;;
32427;SDS011;18882;50.952;4.366;2024-01-11T16:51:51;24.30;;;7.18;;
32427;SDS011;18882;50.952;4.366;2024-01-11T16:55:05;17.67;;;7.40;;
32427;SDS011;18882;50.952;4.366;2024-01-11T16:58:17;18.45;;;7.75;;
32427;SDS011;18882;50.952;4.366;2024-01-11T17:01:56;22.13;;;7.70;;
32427;SDS011;18882;50.952;4.366;2024-01-11T17:05:09;20.23;;;8.48;;
32427;SDS011;18882;50.952;4.366;2024-01-11T17:08:08;18.65;;;7.93;;
32427;SDS011;18882;50.952;4.366;2024-01-11T17:15:37;17.23;;;7.72;;
32427;SDS011;18882;50.952;4.366;2024-01-11T17:22:39;14.13;;;6.70;;
32427;SDS011;18882;50.952;4.366;2024-01-11T18:49:09;28.40;;;10.77;;
32427;SDS011;18882;50.952;4.366;2024-01-11T18:52:23;28.67;;;10.95;;
32427;SDS011;18882;50.952;4.366;2024-01-11T18:55:41;32.05;;;12.60;;
32427;SDS011;18882;50.952;4.366;2024-01-11T19:01:47;32.08;;;10.43;;
32427;SDS011;18882;50.952;4.366;2024-01-11T19:04:36;27.42;;;10.10;;
32427;SDS011;18882;50.952;4.366;2024-01-11T19:07:30;26.23;;;11.27;;
32427;SDS011;18882;50.952;4.366;2024-01-11T19:10:55;33.33;;;12.20;;
32427;SDS011;18882;50.952;4.366;2024-01-11T19:14:08;26.60;;;10.88;;
32427;SDS011;18882;50.952;4.366;2024-01-11T19:17:46;24.55;;;9.30;;
32427;SDS011;18882;50.952;4.366;2024-01-11T19:20:42;23.95;;;10.30;;
32427;SDS011;18882;50.952;4.366;2024-01-11T19:26:13;34.33;;;11.30;;
32427;SDS011;18882;50.952;4.366;2024-01-11T19:28:54;28.90;;;11.60;;
32427;SDS011;18882;50.952;4.366;2024-01-11T19:31:34;31.23;;;11.88;;
32427;SDS011;18882;50.952;4.366;2024-01-11T19:34:19;30.38;;;10.93;;
32427;SDS011;18882;50.952;4.366;2024-01-11T19:37:26;31.73;;;11.48;;
32427;SDS011;18882;50.952;4.366;2024-01-11T19:40:36;30.30;;;12.40;;
32427;SDS011;18882;50.952;4.366;2024-01-11T19:46:30;41.28;;;14.32;;
32427;SDS011;18882;50.952;4.366;2024-01-11T19:49:15;30.98;;;11.73;;
32427;SDS011;18882;50.952;4.366;2024-01-11T19:52:02;33.28;;;12.55;;
32427;SDS011;18882;50.952;4.366;2024-01-11T19:54:40;33.28;;;13.52;;
32427;SDS011;18882;50.952;4.366;2024-01-11T19:57:30;39.83;;;15.07;;
32427;SDS011;18882;50.952;4.366;2024-01-11T20:00:39;34.65;;;13.50;;
32427;SDS011;18882;50.952;4.366;2024-01-11T20:03:30;35.75;;;14.00;;
32427;SDS011;18882;50.952;4.366;2024-01-11T20:07:01;30.33;;;12.95;;
32427;SDS011;18882;50.952;4.366;2024-01-11T20:10:21;32.42;;;11.05;;
32427;SDS011;18882;50.952;4.366;2024-01-11T20:13:01;34.85;;;13.27;;
32427;SDS011;18882;50.952;4.366;2024-01-11T20:15:48;37.35;;;14.10;;
32427;SDS011;18882;50.952;4.366;2024-01-11T20:21:52;31.77;;;11.77;;
32427;SDS011;18882;50.952;4.366;2024-01-11T20:25:36;40.58;;;13.80;;
32427;SDS011;18882;50.952;4.366;2024-01-11T20:28:36;40.88;;;15.48;;
32427;SDS011;18882;50.952;4.366;2024-01-11T20:32:01;37.15;;;13.40;;
32427;SDS011;18882;50.952;4.366;2024-01-11T20:35:15;34.80;;;12.80;;
32427;SDS011;18882;50.952;4.366;2024-01-11T20:38:13;35.60;;;14.88;;
32427;SDS011;18882;50.952;4.366;2024-01-11T20:41:25;37.83;;;14.43;;
32427;SDS011;18882;50.952;4.366;2024-01-11T20:44:42;41.08;;;14.40;;
32427;SDS011;18882;50.952;4.366;2024-01-11T20:48:02;53.40;;;17.95;;
32427;SDS011;18882;50.952;4.366;2024-01-11T20:51:44;62.67;;;19.55;;
32427;SDS011;18882;50.952;4.366;2024-01-11T20:58:38;56.72;;;20.98;;
32427;SDS011;18882;50.952;4.366;2024-01-11T21:02:30;46.92;;;17.20;;
32427;SDS011;18882;50.952;4.366;2024-01-11T22:13:18;46.03;;;15.55;;
32427;SDS011;18882;50.952;4.366;2024-01-11T22:19:41;42.58;;;14.82;;
32427;SDS011;18882;50.952;4.366;2024-01-11T22:30:21;45.72;;;15.80;;
32427;SDS011;18882;50.952;4.366;2024-01-11T22:41:10;39.92;;;13.95;;
32427;SDS011;18882;50.952;4.366;2024-01-11T22:44:29;40.03;;;15.57;;
32427;SDS011;18882;50.952;4.366;2024-01-11T22:48:17;49.75;;;16.27;;
32427;SDS011;18882;50.952;4.366;2024-01-11T22:51:25;43.28;;;16.58;;
32427;SDS011;18882;50.952;4.366;2024-01-11T22:54:54;37.42;;;15.23;;
32427;SDS011;18882;50.952;4.366;2024-01-11T23:01:53;42.53;;;16.27;;
32427;SDS011;18882;50.952;4.366;2024-01-11T23:07:55;50.53;;;18.77;;
32427;SDS011;18882;50.952;4.366;2024-01-11T23:10:58;50.15;;;17.05;;
32427;SDS011;18882;50.952;4.366;2024-01-11T23:14:09;46.60;;;18.40;;
32427;SDS011;18882;50.952;4.366;2024-01-11T23:17:46;50.75;;;18.25;;
32427;SDS011;18882;50.952;4.366;2024-01-11T23:20:36;44.17;;;16.42;;
32427;SDS011;18882;50.952;4.366;2024-01-11T23:23:47;43.20;;;16.65;;
32427;SDS011;18882;50.952;4.366;2024-01-11T23:27:03;44.22;;;18.25;;
32427;SDS011;18882;50.952;4.366;2024-01-11T23:30:00;54.67;;;20.65;;
32427;SDS011;18882;50.952;4.366;2024-01-11T23:32:40;44.92;;;17.48;;
32427;SDS011;18882;50.952;4.366;2024-01-11T23:35:26;54.47;;;19.13;;
32427;SDS011;18882;50.952;4.366;2024-01-11T23:38:03;52.42;;;19.50;;
32427;SDS011;18882;50.952;4.366;2024-01-11T23:40:41;53.17;;;19.02;;
32427;SDS011;18882;50.952;4.366;2024-01-11T23:43:33;49.38;;;18.98;;
32427;SDS011;18882;50.952;4.366;2024-01-11T23:49:29;48.80;;;17.73;;
32427;SDS011;18882;50.952;4.366;2024-01-11T23:52:39;43.53;;;18.08;;
32427;SDS011;18882;50.952;4.366;2024-01-11T23:58:52;63.45;;;20.30;;
